Terminal Aerodrome Forecast
Issued by NWS Sioux Falls, SD

Home | Current Version | Previous Version | Text Only | Print | Product List | Glossary On
Versions: 1 2 3 4 5 6 7 8 9 10 11 12 13 14 15 16 17 18 19 20 21 22 23 24 25 26 27 28 29 30 31 32 33 34 35 36 37 38 39 40 41 42 43
000
FTUS43 KFSD 310540
TAFSUX
TAF
KSUX 310540Z 3106/0106 15008KT P6SM SKC
     FM311500 19012KT P6SM SCT120
     FM311900 19010KT P6SM VCTS BKN050CB BKN120
     FM010000 19005KT 6SM TSRA BKN030CB BKN120
     FM010300 25005KT P6SM SCT030=

USA.gov is the U.S. government's official web portal to all federal, state and local government web resources and services.